Racecast

Matthew Hopper

Folsom (CA) · 12 · SFLCA D1SJS D1YOLO · Compare head to head

Athlete rating 115.8 2015 XC season
Best race 117.4 TF
Races 57
Seasons 4 2012 — 2015

RankedNation #27918·CA #4030·CA D1 #1983·SJS #375·SJS D1 #272·SFL #73·Team #12 ?

Speed rating — all races

Cross Country

XC speed rating

2015 XC 112.8

Folsom (CA) · Grade 12

Date Meet Event Result Place Rating Difficulty PR/SR Flags
2015-11-07 Calaveras County Fairgrounds 4828m 19:50 113th · 6th on team 106.8 +0.065 ★CR SR CSR
2015-10-17 Willow Hills Reservoir Course 5000m 19:46.8 141st · 4th on team 108.2 +0.045
2015-10-07 Nevada Union High School 4828m +0.076 SR CSR
2015-09-26 Stanford University Golf Course 5000m 17:53.6 7th · 6th on team 115.8 +0.002 ★CR CSR RSR
2015-09-26 Stanford University Golf Course 5000m 17:53.6 172nd · 6th on team 115.8 +0.002
2015-09-16 Willow Hills Reservoir Course 5000m 18:29 34th · 3rd on team 114.5 +0.045 ★CR CSR
2015-09-12 Granite Park 5000m 17:49.9 66th · 5th on team 115.7 +0.002 ★PR ★CR SR CSR RSR

2014 XC 111.3

Folsom (CA) · Grade 11

Date Meet Event Result Place Rating Difficulty PR/SR Flags
2014-10-31 Springview Drive 5000m 18:44 52nd · 7th on team 110.2 +0.003
2014-10-11 Springview Drive 5000m 18:20 29th · 1st on team 113.1 +0.003 PR ★CR SR CSR
2014-10-01 Nevada Union High School 5000m 19:10 49th · 5th on team 113.6 +0.056 ★CR R CSR RSR
2014-09-17 Willow Hills Reservoir Course 5000m 19:32 52nd · 6th on team 110.5 +0.045
2014-09-13 Nevada Union High School 4828m 19:18.8 81st · 5th on team 110.6 +0.076 ★PR ★CR SR CSR
2014-09-06 Willow Hills Reservoir Course 5000m 19:09 2nd · 2nd on team 112.3 +0.045 CR CSR RSR
2014-08-23 California State University, Stanislaus 5000m 18:28 5th · 4th on team 108.9 -0.026 PR ★CR SR CSR RSR

2013 XC 104.4

Folsom (CA) · Grade 10

Date Meet Event Result Place Rating Difficulty PR/SR Flags
2013-11-02 Willow Hills Reservoir Course 3400m 12:36 24th · 1st on team 111.6 +0.043 ★PR ★CR R SR CSR RSR
2013-10-18 Ancil Hoffman Park 5000m 19:42.3 61st · 6th on team 107.7 +0.029 PR ★CR R SR CSR RSR
2013-10-09 Granite Park 3540m 13:30 35th · 8th on team 104.3 -0.001 ★PR ★CR SR CSR
2013-09-21 Muller Vineyards 3218m 13:32 30th · 3rd on team 95.3 +0.024 ★CR SR CSR
2013-09-07 Willow Hills Reservoir Course 2500m 9:36 9th · 4th on team 103.1 +0.036 ★PR ★CR SR CSR
2013-08-31 Maidu Park 4000m 15:16 38th · 4th on team 104.4 -0.013 ★PR ★CR SR CSR RSR

2012 XC 99.7

Folsom (CA) · Grade 9

Date Meet Event Result Place Rating Difficulty PR/SR Flags
2012-11-03 Calaveras County Fairgrounds 3218m 12:53 53rd · 4th on team 107.3 +0.084 ★PR ★CR SR CSR
2012-10-27 Willow Hills Reservoir Course 3400m 13:07 29th · 5th on team 107.6 +0.043 PR CR R SR CSR RSR
2012-10-17 Granite Park 3218m 13:34 23rd · 5th on team 92.5 -0.013 PR ★CR SR CSR
2012-10-06 Granite Park 3540m 13:37 38th · 6th on team 103.0 -0.001 PR CR R SR CSR RSR
2012-09-15 Willow Hills Reservoir Course 3300m 13:47 51st · 5th on team 100.1 +0.056 ★PR ★CR R SR CSR RSR
2012-09-08 Granite Park 3218m 14:05.9 46th · 2nd on team 88.8 -0.013 PR CR SR CSR
2012-09-01 Willow Hills Reservoir Course 2500m 9:59.1 18th · 8th on team 98.3 +0.036 PR CR R SR CSR RSR

Track & Field

TF speed rating

2015 TF 113.9

Folsom (CA) · Grade 11

Date Meet Event Result Place Rating Difficulty PR/SR Flags
2015-05-15 SFL Finals hj 5-02.00 -0.024
2015-05-15 SFL Finals 800m 2:10.64 30th · 4th on team 116.7 -0.024 ★PR SR
2015-05-15 SFL Finals 1600m 4:54.21 13th · 2nd on team 117.2 -0.024 ★PR SR
2015-04-29 Folsom/Rocklin 1600m 4:58.89 6th · 3rd on team 116.3 -0.021
2015-04-22 SFL #2 Folsom vs Oak Ridge hj 5-04.00 -0.018
2015-04-22 SFL #2 Folsom vs Oak Ridge 1600m 4:54.88 7th · 3rd on team 117.4 -0.018 PR ★R SR RSR
2015-04-22 SFL #2 Folsom vs Oak Ridge 3200m 11:27.97 4th · 2nd on team 108.6 -0.018 ★PR SR
2015-04-17 Del Oro Invite hj DNS -0.024
2015-04-17 Del Oro Invite 3000m 10:34.53 37th · 4th on team 109.8 -0.024 ★PR SR
2015-04-17 Del Oro Invite 1mile 4:57.07 40th · 2nd on team 117.1 -0.024 ★PR R SR RSR
2015-03-21 Depth Charge hj 5-00.00 -0.021
2015-03-21 Depth Charge 1600m 4:57.33 7th · 1st on team 116.5 -0.021 R RSR
2015-03-14 Sturgeon Invitational (formerly the King Gilbert Invite) hj NH -0.027
2015-03-14 Sturgeon Invitational (formerly the King Gilbert Invite) 800m 2:19.02 26th · 2nd on team 109.0 -0.027
2015-03-14 Sturgeon Invitational (formerly the King Gilbert Invite) 1600m 4:58.38 33rd · 2nd on team 114.9 -0.027
2015-03-07 Ron Ruptier Memorial Invitational hj DNS -0.022
2015-02-28 Capital Classic 800m 2:18.29 19th · 3rd on team 109.0 -0.033 PR SR
2015-02-28 Capital Classic 1600m 4:55.3 14th · 1st on team 115.4 -0.033 PR R SR RSR
2015-02-14 Bulldog Time Trials 1600m 5:07.47 2nd · 2nd on team 112.5 -0.021 PR SR RSR

2014 TF 108.2

Folsom (CA) · Grade 10

Date Meet Event Result Place Rating Difficulty PR/SR Flags
2014-05-16 DRL Finals (F/S & Varsity) 800m 2:20.04 34th · 3rd on team 109.7 -0.018
2014-05-16 DRL Finals (F/S & Varsity) 1600m 5:09.63 24th · 2nd on team 112.3 -0.018 R RSR
2014-05-10 DRL League Trials (F/S & Varsity) 800m 2:20.04 24th · 3rd on team 109.5 -0.018 PR SR
2014-04-25 Frosh-Soph Future Stars 1600m 5:08.21 3rd · 2nd on team 112.2 -0.021 PR R SR RSR
2014-04-23 DRL: Oak Ridge, Folsom, Jesuit, St. Fran 800m 2:21.19 6th · 2nd on team 106.7 -0.034 PR SR
2014-04-09 DRL Dual: Sheldon vs Folsom 800m 2:29 7th · 3rd on team 102.7 -0.021
2014-04-09 DRL Dual: Sheldon vs Folsom 1600m 5:18.5 8th · 3rd on team 108.8 -0.021
2014-04-02 DRL Dual: Folsom vs Ponderosa 1600m 5:14.9 2nd · 2nd on team 109.6 -0.022 PR SR RSR
2014-04-02 DRL Dual: Folsom vs Ponderosa 800m 2:26 8th · 4th on team 104.6 -0.022 PR SR
2014-03-15 Folsom Depth Charge 3200m 11:49.06 14th · 2nd on team 105.9 -0.021 PR SR RSR

2013 TF 104.6

Folsom (CA) · Grade 9

Date Meet Event Result Place Rating Difficulty PR/SR Flags
2013-03-09 King/Gilbert Invitational 1600m 5:27.54 39th · 2nd on team 104.6 -0.027 PR SR RSR